createdAt,value
2022-10-18T00:00:51.123Z,24.80
2022-10-18T00:01:51.142Z,24.00
2022-10-18T00:02:51.090Z,21.80
2022-10-18T00:03:51.071Z,23.90
2022-10-18T00:04:51.128Z,22.30
2022-10-18T00:05:51.037Z,25.40
2022-10-18T00:06:51.013Z,26.10
2022-10-18T00:07:51.000Z,26.10
2022-10-18T00:08:50.980Z,25.50
2022-10-18T00:09:51.015Z,27.50
2022-10-18T00:10:50.957Z,27.00
2022-10-18T00:11:50.933Z,26.20
2022-10-18T00:12:50.936Z,26.20
2022-10-18T00:13:50.903Z,25.10
2022-10-18T00:14:50.989Z,28.80
2022-10-18T00:15:50.864Z,26.20
2022-10-18T00:16:50.857Z,23.90
2022-10-18T00:17:50.826Z,22.70
2022-10-18T00:18:51.851Z,23.60
2022-10-18T00:19:50.799Z,22.40
2022-10-18T00:20:50.793Z,20.00
2022-10-18T00:21:50.771Z,19.40
2022-10-18T00:22:50.753Z,20.60
2022-10-18T00:23:50.759Z,22.20
2022-10-18T00:24:50.722Z,15.80
2022-10-18T00:25:50.711Z,20.50
2022-10-18T00:26:50.701Z,19.90
2022-10-18T00:27:50.663Z,18.30
2022-10-18T00:28:50.732Z,19.00
2022-10-18T00:29:50.637Z,17.30
2022-10-18T00:31:51.632Z,18.70
2022-10-18T00:32:50.581Z,20.80
2022-10-18T00:33:50.589Z,17.30
2022-10-18T00:34:50.550Z,17.80
2022-10-18T00:35:50.538Z,19.30
2022-10-18T00:36:50.528Z,17.40
2022-10-18T00:37:50.491Z,18.50
2022-10-18T00:38:50.508Z,17.50
2022-10-18T00:39:50.460Z,18.60
2022-10-18T00:40:50.457Z,16.50
2022-10-18T00:41:50.428Z,17.60
2022-10-18T00:42:50.421Z,15.70
2022-10-18T00:43:50.429Z,16.90
2022-10-18T00:44:50.389Z,18.70
2022-10-18T00:45:50.372Z,16.60
2022-10-18T00:46:50.353Z,14.60
2022-10-18T00:47:50.358Z,14.90
2022-10-18T00:48:50.469Z,11.70
2022-10-18T00:49:50.331Z,12.00
2022-10-18T00:50:50.396Z,8.20
2022-10-18T00:51:50.281Z,9.30
2022-10-18T00:52:50.256Z,8.30
2022-10-18T00:53:50.261Z,6.80
2022-10-18T00:54:50.218Z,5.90
2022-10-18T00:55:50.197Z,6.30
2022-10-18T00:56:50.187Z,5.70
2022-10-18T00:57:50.231Z,5.50
2022-10-18T00:58:50.175Z,5.80
2022-10-18T00:59:50.164Z,4.40
2022-10-18T01:00:50.132Z,6.90
2022-10-18T01:01:50.168Z,4.50
2022-10-18T01:02:50.095Z,7.20
2022-10-18T01:03:50.100Z,5.00
2022-10-18T01:04:50.056Z,5.00
2022-10-18T01:05:50.026Z,4.20
2022-10-18T01:06:50.099Z,5.20
2022-10-18T01:07:50.000Z,4.20
2022-10-18T01:08:50.013Z,5.10
2022-10-18T01:09:49.961Z,6.10
2022-10-18T01:10:49.946Z,5.60
2022-10-18T01:11:49.925Z,5.90
2022-10-18T01:12:49.919Z,6.40
2022-10-18T01:13:49.926Z,5.10
2022-10-18T01:14:49.876Z,5.60
2022-10-18T01:15:49.914Z,4.70
2022-10-18T01:16:49.846Z,4.10
2022-10-18T01:17:49.833Z,6.70
2022-10-18T01:18:49.858Z,5.00
2022-10-18T01:19:49.801Z,6.10
2022-10-18T01:20:49.766Z,5.00
2022-10-18T01:21:49.763Z,4.50
2022-10-18T01:22:50.748Z,3.80
2022-10-18T01:23:49.756Z,5.90
2022-10-18T01:24:49.749Z,5.40
2022-10-18T01:25:49.692Z,5.00
2022-10-18T01:26:49.676Z,4.30
2022-10-18T01:27:49.660Z,4.40
2022-10-18T01:28:49.732Z,6.20
2022-10-18T01:29:49.627Z,6.30
2022-10-18T01:30:49.604Z,7.10
2022-10-18T01:31:49.595Z,8.80
2022-10-18T01:32:49.584Z,8.90
2022-10-18T01:33:49.629Z,9.00
2022-10-18T01:34:49.645Z,10.90
2022-10-18T01:35:49.531Z,8.90
2022-10-18T01:36:49.517Z,10.30
2022-10-18T01:37:49.546Z,7.30
2022-10-18T01:38:49.500Z,9.70
2022-10-18T01:39:49.462Z,8.70
2022-10-18T01:40:49.437Z,9.60
2022-10-18T01:41:49.450Z,10.20
2022-10-18T01:42:49.418Z,9.30
2022-10-18T01:43:49.426Z,8.60
2022-10-18T01:44:49.381Z,9.50
2022-10-18T01:45:49.370Z,9.60
2022-10-18T01:46:49.346Z,8.70
2022-10-18T01:47:49.336Z,9.80
2022-10-18T01:48:49.338Z,11.00
2022-10-18T01:49:49.294Z,10.20
2022-10-18T01:50:49.278Z,9.70
2022-10-18T01:51:49.265Z,8.40
2022-10-18T01:52:49.243Z,8.10
2022-10-18T01:53:49.266Z,8.80
2022-10-18T01:54:49.236Z,10.70
2022-10-18T01:55:49.190Z,8.70
2022-10-18T01:56:49.182Z,9.40
2022-10-18T01:57:49.150Z,9.30
2022-10-18T01:58:49.174Z,7.90
2022-10-18T01:59:49.162Z,7.90
2022-10-18T02:00:49.157Z,8.70
2022-10-18T02:01:49.147Z,8.00
2022-10-18T02:02:49.074Z,8.80
2022-10-18T02:03:49.081Z,5.90
2022-10-18T02:04:49.038Z,8.40
2022-10-18T02:05:49.016Z,5.80
2022-10-18T02:06:48.998Z,6.20
2022-10-18T02:07:55.362Z,6.00
2022-10-18T02:08:51.009Z,7.70
2022-10-18T02:09:48.968Z,8.60
2022-10-18T02:10:48.955Z,8.70
2022-10-18T02:11:48.966Z,6.90
2022-10-18T02:12:48.907Z,6.80
2022-10-18T02:13:48.921Z,7.00
2022-10-18T02:14:48.876Z,5.90
2022-10-18T02:15:48.856Z,5.00
2022-10-18T02:16:48.855Z,6.00
2022-10-18T02:17:48.837Z,5.90
2022-10-18T02:18:48.831Z,6.80
2022-10-18T02:19:48.786Z,6.20
2022-10-18T02:20:48.781Z,5.00
2022-10-18T02:21:48.765Z,4.90
2022-10-18T02:22:48.752Z,9.80
2022-10-18T02:23:48.760Z,7.10
2022-10-18T02:24:48.717Z,7.60
2022-10-18T02:25:48.702Z,6.50
2022-10-18T02:26:48.680Z,4.70
2022-10-18T02:27:48.658Z,4.30
2022-10-18T02:28:48.673Z,4.90
2022-10-18T02:29:48.626Z,4.80
2022-10-18T02:30:48.604Z,6.40
2022-10-18T02:31:48.588Z,4.80
2022-10-18T02:32:48.583Z,5.50
2022-10-18T02:33:48.586Z,3.80
2022-10-18T02:34:48.543Z,6.50
2022-10-18T02:35:48.562Z,13.60
2022-10-18T02:36:48.513Z,6.70
2022-10-18T02:37:48.501Z,7.30
2022-10-18T02:38:48.503Z,8.10
2022-10-18T02:39:48.470Z,10.70
2022-10-18T02:40:48.435Z,9.80
2022-10-18T02:41:48.419Z,7.80
2022-10-18T02:42:48.408Z,9.10
2022-10-18T02:43:48.427Z,6.60
2022-10-18T02:44:48.374Z,6.10
2022-10-18T02:45:48.359Z,7.60
2022-10-18T02:46:48.351Z,7.50
2022-10-18T02:47:48.324Z,6.10
2022-10-18T02:48:48.339Z,9.40
2022-10-18T02:49:48.287Z,8.00
2022-10-18T02:50:48.270Z,8.00
2022-10-18T02:51:48.288Z,11.20
2022-10-18T02:52:48.242Z,6.80
2022-10-18T02:53:48.251Z,7.80
2022-10-18T02:54:48.204Z,7.80
2022-10-18T02:55:48.184Z,7.60
2022-10-18T02:56:48.176Z,7.20
2022-10-18T02:57:48.146Z,8.50
2022-10-18T02:58:48.188Z,6.70
2022-10-18T02:59:48.126Z,7.70
2022-10-18T03:00:48.099Z,9.50
2022-10-18T03:01:48.151Z,7.80
2022-10-18T03:02:48.082Z,9.00
2022-10-18T03:03:48.084Z,7.70
2022-10-18T03:04:48.036Z,8.90
2022-10-18T03:05:48.027Z,8.80
2022-10-18T03:06:48.001Z,8.50
2022-10-18T03:07:47.987Z,9.40
2022-10-18T03:08:48.002Z,8.50
2022-10-18T03:09:47.954Z,8.20
2022-10-18T03:10:47.934Z,6.80
2022-10-18T03:11:47.915Z,7.40
2022-10-18T03:12:47.894Z,8.00
2022-10-18T03:13:47.926Z,7.50
2022-10-18T03:14:47.861Z,7.70
2022-10-18T03:15:47.894Z,7.70
2022-10-18T03:16:47.916Z,5.80
2022-10-18T03:17:47.814Z,6.70
2022-10-18T03:18:47.835Z,7.30
2022-10-18T03:19:47.775Z,8.10
2022-10-18T03:21:20.148Z,7.70
2022-10-18T03:21:47.773Z,7.50
2022-10-18T03:22:47.738Z,8.60
2022-10-18T03:23:47.755Z,9.10
2022-10-18T03:24:47.707Z,12.00
2022-10-18T03:25:47.712Z,12.00
2022-10-18T03:26:47.684Z,15.00
2022-10-18T03:27:47.677Z,42.20
2022-10-18T03:28:47.763Z,27.20
2022-10-18T03:29:47.625Z,23.00
2022-10-18T03:30:47.599Z,36.80
2022-10-18T03:31:47.612Z,14.20
2022-10-18T03:32:47.577Z,12.30
2022-10-18T03:33:47.589Z,13.90
2022-10-18T03:34:47.571Z,10.70
2022-10-18T03:35:47.538Z,11.00
2022-10-18T03:36:47.504Z,11.00
2022-10-18T03:37:47.534Z,13.40
2022-10-18T03:38:47.503Z,9.70
2022-10-18T03:39:47.460Z,11.80
2022-10-18T03:40:47.467Z,16.10
2022-10-18T03:41:47.432Z,12.50
2022-10-18T03:42:47.400Z,9.20
2022-10-18T03:43:47.421Z,8.60
2022-10-18T03:44:47.381Z,9.80
2022-10-18T03:45:47.373Z,48.30
2022-10-18T03:46:47.343Z,15.40
2022-10-18T03:47:47.316Z,9.80
2022-10-18T03:48:47.356Z,13.00
2022-10-18T03:49:47.285Z,10.60
2022-10-18T03:50:47.287Z,94.10
2022-10-18T03:51:47.271Z,13.20
2022-10-18T03:52:47.251Z,10.70
2022-10-18T03:53:47.246Z,11.50
2022-10-18T03:54:47.238Z,12.10
2022-10-18T03:55:47.201Z,13.50
2022-10-18T03:56:47.164Z,39.50
2022-10-18T03:57:47.169Z,39.00
2022-10-18T03:58:47.177Z,11.50
2022-10-18T03:59:47.142Z,52.00
2022-10-18T04:00:47.147Z,17.50
2022-10-18T04:01:47.152Z,10.90
2022-10-18T04:02:49.686Z,11.50
2022-10-18T04:03:48.151Z,13.90
2022-10-18T04:04:47.053Z,28.30
2022-10-18T04:05:47.014Z,10.80
2022-10-18T04:06:46.996Z,16.00
2022-10-18T04:07:47.021Z,12.90
2022-10-18T04:08:47.004Z,13.40
2022-10-18T04:09:46.995Z,7.60
2022-10-18T04:10:46.952Z,10.30
2022-10-18T04:11:46.923Z,13.00
2022-10-18T04:12:46.915Z,9.70
2022-10-18T04:13:47.006Z,9.80
2022-10-18T04:14:46.894Z,9.50
2022-10-18T04:15:46.891Z,15.60
2022-10-18T04:16:46.860Z,9.80
2022-10-18T04:17:46.837Z,12.50
2022-10-18T04:18:46.872Z,8.50
2022-10-18T04:19:46.786Z,16.30
2022-10-18T04:20:46.783Z,70.90
2022-10-18T04:21:46.763Z,11.20
2022-10-18T04:22:46.754Z,9.70
2022-10-18T04:23:46.749Z,14.10
2022-10-18T04:24:46.702Z,8.20
2022-10-18T04:25:46.747Z,10.30
2022-10-18T04:26:46.672Z,8.30
2022-10-18T04:27:46.663Z,26.80
2022-10-18T04:28:46.716Z,12.60
2022-10-18T04:29:46.652Z,20.80
2022-10-18T04:30:46.627Z,17.80
2022-10-18T04:31:46.601Z,81.20
2022-10-18T04:32:46.583Z,14.00
2022-10-18T04:33:46.594Z,40.10
2022-10-18T04:34:46.571Z,16.50
2022-10-18T04:35:46.519Z,13.20
2022-10-18T04:36:46.507Z,15.80
2022-10-18T04:37:46.523Z,29.20
2022-10-18T04:38:46.503Z,49.60
2022-10-18T04:39:48.604Z,14.60
2022-10-18T04:40:47.460Z,13.80
2022-10-18T04:41:46.430Z,12.40
2022-10-18T04:42:46.406Z,17.30
2022-10-18T04:44:46.392Z,21.50
2022-10-18T04:45:46.367Z,18.80
2022-10-18T04:46:46.345Z,16.60
2022-10-18T04:47:46.335Z,20.50
2022-10-18T04:48:46.375Z,18.90
2022-10-18T04:49:46.296Z,17.50
2022-10-18T04:50:46.268Z,18.60
2022-10-18T04:51:46.251Z,23.80
2022-10-18T04:52:46.285Z,17.90
2022-10-18T04:53:46.284Z,20.20
2022-10-18T04:54:46.198Z,16.00
2022-10-18T04:55:46.195Z,22.00
2022-10-18T04:56:46.203Z,25.00
2022-10-18T04:57:46.178Z,22.00
2022-10-18T04:58:46.191Z,29.40
2022-10-18T04:59:46.139Z,21.00
2022-10-18T05:00:46.147Z,20.50
2022-10-18T05:01:46.186Z,28.70
2022-10-18T05:02:46.079Z,22.30
2022-10-18T05:03:46.085Z,22.20
2022-10-18T05:04:46.048Z,22.40
2022-10-18T05:06:01.334Z,21.60
2022-10-18T05:06:48.019Z,22.70
2022-10-18T05:07:45.971Z,52.60
2022-10-18T05:08:45.988Z,38.50
2022-10-18T05:09:45.933Z,27.70
2022-10-18T05:10:45.936Z,32.40
2022-10-18T05:11:45.906Z,21.80
2022-10-18T05:12:45.918Z,30.70
2022-10-18T05:13:47.307Z,29.60
2022-10-18T05:14:45.862Z,29.30
2022-10-18T05:15:45.850Z,22.20
2022-10-18T05:16:45.825Z,23.30
2022-10-18T05:17:45.830Z,28.20
2022-10-18T05:18:45.828Z,29.60
2022-10-18T05:19:45.780Z,35.30
2022-10-18T05:20:45.803Z,23.80
2022-10-18T05:21:45.775Z,32.50
2022-10-18T05:22:45.729Z,23.10
2022-10-18T05:23:45.765Z,27.30
2022-10-18T05:24:45.691Z,27.90
2022-10-18T05:25:45.677Z,23.10
2022-10-18T05:26:45.636Z,21.70
2022-10-18T05:27:46.654Z,22.90
2022-10-18T05:28:45.728Z,24.00
2022-10-18T05:29:45.609Z,22.30
2022-10-18T05:30:45.629Z,19.80
2022-10-18T05:31:45.624Z,18.30
2022-10-18T05:32:45.571Z,17.50
2022-10-18T05:33:45.577Z,16.90
2022-10-18T05:34:45.538Z,17.60
2022-10-18T05:35:45.497Z,18.30
2022-10-18T05:36:45.488Z,19.60
2022-10-18T05:37:45.497Z,21.20
2022-10-18T05:38:45.542Z,21.10
2022-10-18T05:39:45.467Z,22.30
2022-10-18T05:40:45.427Z,20.40
2022-10-18T05:41:45.417Z,21.60
2022-10-18T05:42:45.461Z,22.30
2022-10-18T05:43:45.416Z,19.20
2022-10-18T05:44:45.365Z,18.70
2022-10-18T05:45:45.363Z,22.40
2022-10-18T05:46:45.349Z,24.50
2022-10-18T05:47:45.315Z,22.30
2022-10-18T05:48:45.329Z,24.30
2022-10-18T05:49:45.321Z,25.60
2022-10-18T05:50:45.265Z,23.80
2022-10-18T05:51:45.243Z,27.90
2022-10-18T05:52:45.210Z,26.80
2022-10-18T05:53:45.250Z,24.00
2022-10-18T05:54:45.211Z,24.80
2022-10-18T05:55:45.172Z,24.60
2022-10-18T05:56:45.167Z,21.30
2022-10-18T05:57:45.177Z,18.70
2022-10-18T05:58:45.182Z,20.80
2022-10-18T05:59:45.104Z,18.90
2022-10-18T06:00:45.092Z,23.40
2022-10-18T06:01:45.073Z,19.80
2022-10-18T06:02:45.098Z,21.80
2022-10-18T06:03:45.060Z,15.40
2022-10-18T06:04:45.066Z,18.00
2022-10-18T06:05:45.019Z,13.20
2022-10-18T06:06:44.989Z,14.50
2022-10-18T06:07:44.991Z,12.80
2022-10-18T06:08:44.991Z,13.00
2022-10-18T06:09:44.970Z,13.10
2022-10-18T06:10:44.926Z,13.30
2022-10-18T06:11:44.915Z,12.50
2022-10-18T06:12:44.914Z,11.00
2022-10-18T06:13:44.896Z,11.60
2022-10-18T06:14:44.895Z,11.00
2022-10-18T06:15:44.853Z,12.10
2022-10-18T06:16:44.808Z,11.00
2022-10-18T06:17:44.811Z,11.80
2022-10-18T06:18:44.856Z,8.50
2022-10-18T06:19:44.878Z,7.70
2022-10-18T06:20:44.779Z,9.20
2022-10-18T06:21:44.749Z,10.00
2022-10-18T06:22:44.707Z,9.90
2022-10-18T06:23:44.711Z,9.30
2022-10-18T06:24:44.700Z,7.40
2022-10-18T06:25:44.666Z,10.60
2022-10-18T06:26:44.683Z,11.20
2022-10-18T06:27:44.622Z,10.70
2022-10-18T06:28:44.662Z,13.70
2022-10-18T06:29:44.638Z,11.50
2022-10-18T06:30:44.589Z,9.40
2022-10-18T06:31:44.575Z,8.00
2022-10-18T06:32:44.556Z,12.30
2022-10-18T06:33:44.606Z,9.20
2022-10-18T06:34:44.584Z,19.00
2022-10-18T06:35:44.513Z,16.90
2022-10-18T06:36:44.484Z,14.20
2022-10-18T06:37:44.517Z,16.60
2022-10-18T06:38:44.455Z,21.50
2022-10-18T06:39:44.459Z,136.20
2022-10-18T06:40:44.423Z,260.80
2022-10-18T06:41:44.412Z,92.90
2022-10-18T06:42:50.955Z,187.00
2022-10-18T06:43:45.391Z,177.30
2022-10-18T06:44:44.489Z,158.80
2022-10-18T06:45:44.335Z,217.50
2022-10-18T06:46:44.322Z,188.80
2022-10-18T06:47:44.337Z,290.40
2022-10-18T06:48:44.504Z,568.00
2022-10-18T06:49:44.323Z,188.20
2022-10-18T06:50:44.239Z,472.60
2022-10-18T06:51:44.238Z,99.30
2022-10-18T06:52:44.209Z,143.80
2022-10-18T06:53:53.445Z,109.10
2022-10-18T06:54:46.190Z,180.20
2022-10-18T06:55:45.216Z,19.20
2022-10-18T06:56:44.145Z,338.60
2022-10-18T06:57:44.120Z,138.70
2022-10-18T06:58:44.173Z,267.40
2022-10-18T06:59:44.087Z,168.20
2022-10-18T07:00:44.102Z,254.90
2022-10-18T07:01:44.168Z,72.10
2022-10-18T07:02:44.046Z,216.70
2022-10-18T07:03:44.063Z,122.10
2022-10-18T07:04:44.013Z,54.10
2022-10-18T07:05:43.997Z,28.00
2022-10-18T07:06:43.969Z,14.60
2022-10-18T07:07:43.975Z,31.40
2022-10-18T07:08:43.983Z,23.00
2022-10-18T07:09:43.930Z,22.40
2022-10-18T07:10:43.894Z,18.20
2022-10-18T07:11:43.900Z,17.70
2022-10-18T07:12:43.862Z,25.20
2022-10-18T07:13:43.892Z,14.10
2022-10-18T07:14:43.836Z,14.90
2022-10-18T07:15:43.831Z,18.70
2022-10-18T07:16:43.836Z,14.90
2022-10-18T07:17:43.805Z,16.90
2022-10-18T07:18:43.803Z,14.50
2022-10-18T07:19:43.779Z,13.00
2022-10-18T07:20:43.752Z,14.30
2022-10-18T07:21:43.717Z,14.10
2022-10-18T07:22:43.717Z,12.10
2022-10-18T07:23:43.774Z,14.30
2022-10-18T07:24:43.691Z,15.70
2022-10-18T07:25:43.655Z,14.70
2022-10-18T07:26:43.639Z,13.00
2022-10-18T07:27:43.650Z,12.90
2022-10-18T07:28:43.705Z,14.60
2022-10-18T07:29:43.600Z,18.60
2022-10-18T07:30:43.592Z,16.70
2022-10-18T07:31:43.556Z,17.30
2022-10-18T07:32:43.570Z,13.80
2022-10-18T07:33:43.565Z,15.80
2022-10-18T07:34:43.523Z,13.20
2022-10-18T07:35:43.551Z,13.20
2022-10-18T07:36:43.472Z,14.10
2022-10-18T07:37:43.483Z,17.80
2022-10-18T07:38:43.493Z,17.00
2022-10-18T07:39:43.470Z,18.40
2022-10-18T07:40:43.395Z,18.70
2022-10-18T07:41:43.469Z,13.10
2022-10-18T07:42:43.377Z,13.30
2022-10-18T07:43:43.409Z,13.10
2022-10-18T07:44:43.331Z,13.10
2022-10-18T07:45:43.360Z,13.40
2022-10-18T07:46:43.336Z,14.00
2022-10-18T07:47:43.288Z,13.40
2022-10-18T07:48:43.331Z,12.30
2022-10-18T07:49:43.258Z,13.60
2022-10-18T07:50:43.265Z,13.20
2022-10-18T07:51:43.256Z,13.10
2022-10-18T07:52:43.223Z,14.60
2022-10-18T07:53:43.229Z,13.80
2022-10-18T07:54:43.205Z,12.00
2022-10-18T07:55:43.145Z,14.70
2022-10-18T07:56:43.188Z,12.50
2022-10-18T07:57:43.138Z,13.00
2022-10-18T07:58:43.106Z,15.80
2022-10-18T07:59:43.118Z,17.00
2022-10-18T08:00:43.243Z,15.80
2022-10-18T08:01:43.128Z,10.50
2022-10-18T08:02:43.035Z,12.20
2022-10-18T08:03:43.046Z,13.60
2022-10-18T08:04:43.105Z,16.00
2022-10-18T08:05:42.990Z,12.50
2022-10-18T08:06:42.976Z,11.20
2022-10-18T08:07:43.013Z,10.80
2022-10-18T08:08:42.955Z,11.60
2022-10-18T08:09:42.966Z,13.90
2022-10-18T08:10:42.901Z,10.30
2022-10-18T08:11:42.898Z,9.20
2022-10-18T08:12:43.113Z,12.40
2022-10-18T08:13:42.860Z,11.30
2022-10-18T08:14:42.875Z,12.00
2022-10-18T08:15:42.853Z,12.80
2022-10-18T08:16:42.801Z,11.10
2022-10-18T08:17:42.792Z,12.80
2022-10-18T08:18:42.809Z,13.10
2022-10-18T08:19:52.814Z,15.30
2022-10-18T08:20:44.740Z,13.70
2022-10-18T08:21:42.741Z,15.30
2022-10-18T08:22:42.790Z,13.10
2022-10-18T08:23:42.701Z,12.80
2022-10-18T08:24:42.717Z,12.20
2022-10-18T08:25:42.663Z,13.10
2022-10-18T08:26:42.673Z,16.90
2022-10-18T08:27:42.626Z,14.80
2022-10-18T08:28:49.173Z,13.70
2022-10-18T08:29:44.657Z,13.10
2022-10-18T08:30:42.576Z,14.80
2022-10-18T08:31:42.571Z,19.00
2022-10-18T08:32:42.548Z,48.70
2022-10-18T08:33:42.536Z,12.70
2022-10-18T08:34:42.596Z,59.60
2022-10-18T08:35:42.521Z,16.90
2022-10-18T08:36:42.494Z,21.10
2022-10-18T08:37:42.460Z,18.90
2022-10-18T08:38:42.451Z,31.00
2022-10-18T08:39:42.479Z,9.10
2022-10-18T08:40:42.406Z,14.80
2022-10-18T08:41:42.410Z,22.90
2022-10-18T08:42:42.371Z,9.30
2022-10-18T08:43:42.576Z,12.70
2022-10-18T08:44:42.353Z,10.70
2022-10-18T08:45:43.336Z,7.50
2022-10-18T08:46:43.327Z,9.70
2022-10-18T08:47:42.312Z,10.70
2022-10-18T08:48:42.305Z,9.60
2022-10-18T08:49:46.587Z,9.10
2022-10-18T08:50:43.263Z,9.00
2022-10-18T08:51:42.229Z,9.70
2022-10-18T08:52:42.200Z,10.80
2022-10-18T08:53:42.241Z,10.50
2022-10-18T08:54:42.162Z,11.30
2022-10-18T08:55:42.170Z,13.00
2022-10-18T08:56:42.153Z,10.70
2022-10-18T08:57:42.126Z,12.10
2022-10-18T08:58:42.153Z,13.20
2022-10-18T08:59:42.090Z,12.10
2022-10-18T09:00:42.100Z,12.70
2022-10-18T09:01:42.157Z,20.70
2022-10-18T09:02:42.050Z,26.30
2022-10-18T09:03:42.106Z,18.70
2022-10-18T09:04:42.047Z,28.80
2022-10-18T09:05:41.970Z,31.40
2022-10-18T09:06:41.984Z,11.50
2022-10-18T09:07:41.962Z,9.60
2022-10-18T09:08:41.975Z,88.30
2022-10-18T09:09:41.908Z,18.20
2022-10-18T09:10:41.909Z,14.30
2022-10-18T09:11:41.883Z,29.20
2022-10-18T09:12:41.891Z,28.90
2022-10-18T09:13:41.906Z,26.40
2022-10-18T09:14:41.876Z,23.80
2022-10-18T09:15:41.823Z,34.20
2022-10-18T09:16:41.798Z,14.50
2022-10-18T09:17:41.802Z,13.70
2022-10-18T09:18:41.802Z,13.70
2022-10-18T09:19:41.768Z,20.80
2022-10-18T09:20:41.733Z,17.20
2022-10-18T09:21:41.734Z,19.70
2022-10-18T09:22:41.703Z,15.70
2022-10-18T09:23:41.728Z,15.00
2022-10-18T09:24:41.697Z,15.40
2022-10-18T09:25:41.653Z,16.10
2022-10-18T09:26:41.646Z,18.70
2022-10-18T09:27:41.684Z,17.70
2022-10-18T09:28:41.723Z,16.00
2022-10-18T09:29:41.584Z,14.80
2022-10-18T09:30:41.580Z,17.80
2022-10-18T09:31:41.577Z,15.50
2022-10-18T09:32:41.543Z,16.20
2022-10-18T09:33:41.573Z,17.10
2022-10-18T09:34:41.510Z,17.00
2022-10-18T09:35:41.523Z,18.60
2022-10-18T09:36:41.488Z,18.20
2022-10-18T09:37:41.475Z,19.30
2022-10-18T09:38:41.562Z,18.20
2022-10-18T09:39:41.430Z,19.30
2022-10-18T09:40:41.431Z,17.40
2022-10-18T09:41:41.390Z,17.50
2022-10-18T09:42:41.370Z,17.00
2022-10-18T09:43:41.355Z,18.60
2022-10-18T09:44:41.361Z,20.20
2022-10-18T09:45:41.321Z,19.20
2022-10-18T09:46:41.320Z,19.60
2022-10-18T09:47:41.280Z,19.20
2022-10-18T09:48:41.267Z,18.30
2022-10-18T09:49:41.299Z,18.70
2022-10-18T09:50:41.249Z,18.00
2022-10-18T09:51:41.206Z,17.20
2022-10-18T09:52:41.205Z,18.20
2022-10-18T09:53:41.265Z,17.00
2022-10-18T09:54:41.231Z,18.50
2022-10-18T09:55:41.148Z,17.00
2022-10-18T09:56:42.041Z,18.10
2022-10-18T09:57:41.124Z,18.00
2022-10-18T09:58:41.112Z,17.50
2022-10-18T09:59:41.114Z,16.80
2022-10-18T10:00:41.069Z,15.70
2022-10-18T10:01:41.078Z,15.20
2022-10-18T10:02:41.100Z,14.90
2022-10-18T10:03:41.005Z,16.20
2022-10-18T10:04:41.010Z,13.90
2022-10-18T10:05:40.996Z,14.80
2022-10-18T10:06:40.953Z,12.90
2022-10-18T10:07:41.266Z,14.70
2022-10-18T10:08:40.928Z,15.10
2022-10-18T10:09:40.928Z,14.90
2022-10-18T10:10:40.883Z,17.60
2022-10-18T10:11:40.865Z,15.80
2022-10-18T10:12:40.850Z,12.00
2022-10-18T10:13:40.906Z,12.90
2022-10-18T10:14:40.826Z,13.10
2022-10-18T10:15:42.606Z,14.90
2022-10-18T10:16:41.788Z,12.00
2022-10-18T10:17:40.773Z,12.40
2022-10-18T10:18:40.826Z,11.30
2022-10-18T10:19:40.733Z,11.40
2022-10-18T10:20:40.747Z,10.50
2022-10-18T10:21:40.727Z,11.30
2022-10-18T10:22:40.676Z,11.30
2022-10-18T10:23:40.702Z,10.50
2022-10-18T10:24:40.662Z,9.90
2022-10-18T10:25:40.624Z,9.50
2022-10-18T10:26:40.607Z,10.50
2022-10-18T10:27:40.591Z,11.20
2022-10-18T10:28:40.629Z,11.40
2022-10-18T10:29:44.808Z,10.40
2022-10-18T10:30:41.540Z,8.80
2022-10-18T10:31:40.542Z,9.30
2022-10-18T10:32:40.563Z,9.90
2022-10-18T10:33:40.544Z,9.90
2022-10-18T10:34:42.442Z,9.10
2022-10-18T10:35:55.820Z,10.50
2022-10-18T10:36:42.459Z,10.90
2022-10-18T10:37:40.438Z,8.90
2022-10-18T10:38:40.436Z,9.40
2022-10-18T10:39:42.869Z,9.00
2022-10-18T10:40:40.394Z,9.40
2022-10-18T10:41:40.379Z,8.40
2022-10-18T10:42:40.345Z,8.50
2022-10-18T10:43:40.589Z,9.10
2022-10-18T10:44:40.303Z,7.90
2022-10-18T10:45:40.302Z,8.20
2022-10-18T10:46:40.344Z,8.20
2022-10-18T10:47:40.268Z,7.10
2022-10-18T10:48:40.288Z,8.40
2022-10-18T10:49:41.362Z,7.80
2022-10-18T10:50:41.225Z,7.70
2022-10-18T10:51:40.216Z,8.40
2022-10-18T10:52:40.500Z,8.70
2022-10-18T10:53:40.217Z,7.30
2022-10-18T10:54:40.147Z,8.40
2022-10-18T10:55:40.167Z,7.50
2022-10-18T10:56:40.122Z,8.30
2022-10-18T10:57:40.092Z,8.60
2022-10-18T10:58:40.208Z,7.50
2022-10-18T11:00:40.072Z,7.70
2022-10-18T11:01:40.043Z,6.40
2022-10-18T11:02:40.109Z,7.50
2022-10-18T11:03:40.087Z,6.80
2022-10-18T11:04:40.017Z,7.40
2022-10-18T11:05:39.978Z,7.40
2022-10-18T11:06:39.960Z,8.30
2022-10-18T11:07:39.964Z,7.50
2022-10-18T11:08:39.990Z,7.80
2022-10-18T11:09:39.927Z,7.80
2022-10-18T11:10:39.907Z,8.00
2022-10-18T11:11:39.887Z,9.10
2022-10-18T11:12:39.874Z,11.20
2022-10-18T11:13:39.889Z,7.80
2022-10-18T11:14:39.845Z,8.30
2022-10-18T11:15:39.837Z,6.70
2022-10-18T11:16:39.847Z,8.80
2022-10-18T11:17:39.763Z,9.40
2022-10-18T11:18:39.805Z,8.90
2022-10-18T11:19:39.729Z,7.40
2022-10-18T11:20:39.816Z,9.00
2022-10-18T11:21:39.699Z,7.60
2022-10-18T11:22:39.785Z,7.70
2022-10-18T11:23:39.736Z,8.30
2022-10-18T11:24:39.674Z,8.90
2022-10-18T11:25:39.667Z,9.10
2022-10-18T11:26:42.042Z,8.60
2022-10-18T11:27:39.601Z,7.20
2022-10-18T11:28:40.655Z,7.40
2022-10-18T11:29:39.609Z,7.60
2022-10-18T11:30:39.563Z,8.00
2022-10-18T11:31:39.546Z,7.60
2022-10-18T11:32:39.522Z,5.90
2022-10-18T11:34:06.964Z,6.50
2022-10-18T11:34:41.507Z,7.00
2022-10-18T11:35:39.485Z,6.70
2022-10-18T11:36:45.492Z,6.20
2022-10-18T11:37:41.763Z,5.60
2022-10-18T11:38:39.473Z,5.80
2022-10-18T11:39:40.425Z,6.00
2022-10-18T11:40:39.403Z,5.80
2022-10-18T11:41:39.383Z,7.40
2022-10-18T11:42:40.193Z,6.80
2022-10-18T11:44:00.983Z,8.10
2022-10-18T11:44:41.333Z,6.90
2022-10-18T11:45:39.310Z,8.60
2022-10-18T11:46:39.301Z,8.40
2022-10-18T11:47:39.303Z,8.60
2022-10-18T11:48:39.306Z,7.50
2022-10-18T11:49:39.288Z,7.40
2022-10-18T11:50:39.276Z,6.50
2022-10-18T11:51:56.344Z,7.60
2022-10-18T11:52:41.199Z,7.50
2022-10-18T11:53:39.191Z,7.10
2022-10-18T11:55:39.195Z,8.40
2022-10-18T11:56:39.173Z,7.60
2022-10-18T11:57:39.158Z,8.10
2022-10-18T11:58:39.111Z,8.00
2022-10-18T11:59:40.121Z,7.50
2022-10-18T12:00:39.151Z,7.60
2022-10-18T12:01:39.083Z,7.20
2022-10-18T12:02:39.087Z,7.50
2022-10-18T12:03:39.024Z,6.80
2022-10-18T12:04:49.045Z,6.40
2022-10-18T12:05:41.024Z,8.20
2022-10-18T12:06:39.121Z,6.20
2022-10-18T12:07:38.941Z,5.90
2022-10-18T12:08:39.930Z,7.30
2022-10-18T12:09:39.050Z,7.50
2022-10-18T12:11:00.036Z,6.10
2022-10-18T12:11:41.857Z,7.60
2022-10-18T12:12:38.904Z,7.00
2022-10-18T12:13:38.852Z,5.70
2022-10-18T12:14:38.871Z,8.50
2022-10-18T12:15:38.821Z,7.60
2022-10-18T12:16:51.069Z,8.10
2022-10-18T12:17:46.151Z,5.90
2022-10-18T12:18:40.823Z,8.70
2022-10-18T12:19:38.843Z,7.50
2022-10-18T12:20:38.760Z,8.10
2022-10-18T12:21:38.718Z,7.50
2022-10-18T12:22:38.725Z,7.20
2022-10-18T12:23:38.689Z,7.70
2022-10-18T12:24:38.704Z,8.20
2022-10-18T12:25:38.664Z,10.30
2022-10-18T12:26:38.647Z,8.30
2022-10-18T12:27:38.610Z,8.00
2022-10-18T12:28:38.635Z,9.10
2022-10-18T12:29:38.609Z,8.40
2022-10-18T12:30:38.614Z,8.00
2022-10-18T12:31:38.546Z,8.40
2022-10-18T12:32:38.538Z,8.30
2022-10-18T12:33:38.540Z,9.10
2022-10-18T12:34:38.511Z,7.90
2022-10-18T12:35:38.505Z,8.10
2022-10-18T12:36:38.454Z,7.80
2022-10-18T12:37:38.464Z,6.90
2022-10-18T12:38:38.441Z,8.80
2022-10-18T12:39:43.698Z,8.40
2022-10-18T12:40:39.413Z,6.90
2022-10-18T12:41:38.390Z,8.00
2022-10-18T12:42:38.347Z,8.60
2022-10-18T12:43:38.354Z,8.60
2022-10-18T12:44:38.359Z,7.50
2022-10-18T12:45:38.291Z,7.50
2022-10-18T12:46:38.295Z,7.90
2022-10-18T12:47:38.279Z,8.20
2022-10-18T12:48:38.266Z,9.00
2022-10-18T12:49:40.269Z,10.00
2022-10-18T12:50:38.304Z,10.60
2022-10-18T12:51:38.202Z,10.70
2022-10-18T12:52:38.191Z,11.30
2022-10-18T12:53:38.176Z,12.90
2022-10-18T12:54:38.179Z,12.70
2022-10-18T12:55:38.198Z,13.90
2022-10-18T12:56:38.105Z,15.10
2022-10-18T12:57:38.113Z,13.80
2022-10-18T12:58:38.108Z,14.50
2022-10-18T12:59:38.145Z,13.80
2022-10-18T13:00:38.059Z,14.90
2022-10-18T13:01:38.161Z,15.10
2022-10-18T13:02:38.030Z,14.80
2022-10-18T13:03:38.038Z,14.80
2022-10-18T13:04:38.007Z,15.30
2022-10-18T13:05:48.802Z,15.80
2022-10-18T13:06:40.001Z,16.40